Time;durP1;ratioP1;P1;durP2;ratioP2;P2;SDS_P1;SDS_P2;PMS_P1;PMS_P2;Temp;Humidity;BMP_temperature;BMP_pressure;BME280_temperature;BME280_humidity;BME280_pressure;Samples;Min_cycle;Max_cycle;Signal;HPM_P1;HPM_P2
2023/02/15 00:01:46;;;;;;;14.87;9.93;;;;;;;;;;5052356;28;20452;-68
2023/02/15 00:04:14;;;;;;;18.80;10.20;;;;;;;;;;5052778;28;20951;-68
2023/02/15 00:06:41;;;;;;;10.60;5.80;;;;;;;;;;5051970;28;20439;-67
2023/02/15 00:09:09;;;;;;;12.30;8.30;;;;;;;;;;5051926;28;20473;-68
2023/02/15 00:11:49;;;;;;;14.23;9.50;;;;;;;;;;5052945;28;20489;-69
2023/02/15 00:14:19;;;;;;;8.17;4.23;;;;;;;;;;5052131;28;20496;-69
2023/02/15 00:16:47;;;;;;;6.03;4.73;;;;;;;;;;5052025;28;20452;-68
2023/02/15 00:19:14;;;;;;;15.83;8.20;;;;;;;;;;5052135;28;20453;-68
2023/02/15 00:21:42;;;;;;;9.20;6.40;;;;;;;;;;5052202;28;20451;-68
2023/02/15 00:24:09;;;;;;;7.90;6.00;;;;;;;;;;5052646;28;20445;-68
2023/02/15 00:26:37;;;;;;;17.83;10.13;;;;;;;;;;5052316;28;20454;-69
2023/02/15 00:29:04;;;;;;;10.87;7.77;;;;;;;;;;5051888;28;20515;-67
2023/02/15 00:31:33;;;;;;;12.57;7.50;;;;;;;;;;5052166;28;20532;-69
2023/02/15 00:34:02;;;;;;;9.23;6.23;;;;;;;;;;5051671;28;20464;-67
2023/02/15 00:36:29;;;;;;;15.30;9.80;;;;;;;;;;5051946;28;20454;-69
2023/02/15 00:38:56;;;;;;;10.07;7.00;;;;;;;;;;5051547;28;20461;-69
2023/02/15 00:41:23;;;;;;;19.23;7.60;;;;;;;;;;5051771;28;20457;-68
2023/02/15 00:43:51;;;;;;;14.67;7.27;;;;;;;;;;5051376;28;20453;-68
2023/02/15 00:46:18;;;;;;;14.80;8.07;;;;;;;;;;5051486;28;20460;-68
2023/02/15 00:48:46;;;;;;;10.97;7.63;;;;;;;;;;5050867;28;20453;-68
2023/02/15 00:51:13;;;;;;;10.53;6.13;;;;;;;;;;5051596;28;20493;-67
2023/02/15 00:53:40;;;;;;;11.67;7.67;;;;;;;;;;5050892;28;20454;-67
2023/02/15 00:56:07;;;;;;;12.97;6.80;;;;;;;;;;5051940;28;20449;-68
2023/02/15 00:58:34;;;;;;;8.73;6.57;;;;;;;;;;5051431;28;20457;-68
2023/02/15 01:01:05;;;;;;;9.80;6.80;;;;;;;;;;5050443;28;20448;-67
2023/02/15 01:03:32;;;;;;;8.83;4.83;;;;;;;;;;5039121;28;20503;-68
2023/02/15 01:06:00;;;;;;;9.87;6.50;;;;;;;;;;5051101;28;20454;-68
2023/02/15 01:08:27;;;;;;;14.87;7.87;;;;;;;;;;5051402;28;20488;-67
2023/02/15 01:10:55;;;;;;;12.07;6.47;;;;;;;;;;5050140;28;20499;-67
2023/02/15 01:13:22;;;;;;;8.13;5.23;;;;;;;;;;5051499;28;20448;-67
2023/02/15 01:15:54;;;;;;;11.10;6.53;;;;;;;;;;5049701;28;20451;-67
2023/02/15 01:18:21;;;;;;;11.33;6.00;;;;;;;;;;5051405;28;20475;-67
2023/02/15 01:20:48;;;;;;;15.60;6.93;;;;;;;;;;5049940;28;20494;-68
2023/02/15 01:23:17;;;;;;;14.17;7.07;;;;;;;;;;5050772;28;20449;-68
2023/02/15 01:25:44;;;;;;;6.83;5.60;;;;;;;;;;5050758;28;20445;-68
2023/02/15 01:28:11;;;;;;;8.10;5.80;;;;;;;;;;5050876;28;20963;-68
2023/02/15 01:30:38;;;;;;;8.40;5.73;;;;;;;;;;5050739;28;20514;-68
2023/02/15 01:33:06;;;;;;;11.53;5.40;;;;;;;;;;5051089;28;20973;-68
2023/02/15 01:35:33;;;;;;;12.17;7.37;;;;;;;;;;5050944;28;20450;-69
2023/02/15 01:38:00;;;;;;;13.00;7.20;;;;;;;;;;5050347;28;20457;-70
2023/02/15 01:40:29;;;;;;;10.43;4.60;;;;;;;;;;5050668;28;20445;-68
2023/02/15 01:42:57;;;;;;;15.20;5.90;;;;;;;;;;5050653;28;20450;-68
2023/02/15 01:45:25;;;;;;;12.53;7.87;;;;;;;;;;5050948;28;20445;-68
2023/02/15 01:47:56;;;;;;;7.17;4.47;;;;;;;;;;5050877;28;20469;-67
2023/02/15 01:50:24;;;;;;;10.90;7.83;;;;;;;;;;5054356;28;20450;-68
2023/02/15 01:52:53;;;;;;;11.47;6.03;;;;;;;;;;5054367;28;20454;-69
2023/02/15 01:55:23;;;;;;;10.03;6.20;;;;;;;;;;5054520;28;20452;-69
2023/02/15 01:57:51;;;;;;;8.57;5.43;;;;;;;;;;5053992;28;20460;-67
2023/02/15 02:00:19;;;;;;;12.27;6.90;;;;;;;;;;5047647;28;20455;-67
2023/02/15 02:02:48;;;;;;;9.37;5.63;;;;;;;;;;5054069;28;20446;-67
2023/02/15 02:05:15;;;;;;;8.73;5.97;;;;;;;;;;5054888;28;20831;-69
2023/02/15 02:07:43;;;;;;;6.60;4.73;;;;;;;;;;5054091;28;20456;-69
2023/02/15 02:10:12;;;;;;;10.93;6.90;;;;;;;;;;5054031;28;20484;-69
2023/02/15 02:12:40;;;;;;;10.20;6.70;;;;;;;;;;5054667;28;20480;-70
2023/02/15 02:15:09;;;;;;;8.93;8.00;;;;;;;;;;5054587;28;20854;-69
2023/02/15 02:17:41;;;;;;;12.50;7.63;;;;;;;;;;5054300;28;20449;-69
2023/02/15 02:20:39;;;;;;;14.50;6.57;;;;;;;;;;5054324;28;20810;-69
2023/02/15 02:23:12;;;;;;;10.77;4.53;;;;;;;;;;5032202;28;20547;-69
2023/02/15 02:25:49;;;;;;;7.50;6.70;;;;;;;;;;5050101;28;20832;-69
2023/02/15 02:28:27;;;;;;;7.30;4.57;;;;;;;;;;5054309;28;20453;-68
2023/02/15 02:31:12;;;;;;;9.03;5.33;;;;;;;;;;5052642;28;20462;-68
2023/02/15 02:33:47;;;;;;;6.67;5.20;;;;;;;;;;5053878;28;20451;-66
2023/02/15 02:36:21;;;;;;;8.13;5.93;;;;;;;;;;5054453;28;20451;-68
2023/02/15 02:39:00;;;;;;;8.27;5.20;;;;;;;;;;5053301;28;20451;-68
2023/02/15 02:41:34;;;;;;;6.60;4.20;;;;;;;;;;5046962;28;20447;-68
2023/02/15 02:44:04;;;;;;;10.07;6.67;;;;;;;;;;5053293;28;20467;-68
2023/02/15 02:46:33;;;;;;;12.93;5.43;;;;;;;;;;5053377;28;20451;-68
2023/02/15 02:49:02;;;;;;;9.60;8.13;;;;;;;;;;5052716;28;20522;-68
2023/02/15 02:51:29;;;;;;;12.27;6.50;;;;;;;;;;5053536;28;21032;-68
2023/02/15 02:53:58;;;;;;;7.33;5.20;;;;;;;;;;5053164;28;20453;-68
2023/02/15 02:56:28;;;;;;;9.23;5.93;;;;;;;;;;5053735;28;20449;-68
2023/02/15 02:58:58;;;;;;;5.80;4.80;;;;;;;;;;5052520;28;20461;-68
2023/02/15 03:01:28;;;;;;;9.73;7.00;;;;;;;;;;5053298;28;20465;-68
2023/02/15 03:03:58;;;;;;;12.10;6.37;;;;;;;;;;5053164;28;20506;-68
2023/02/15 03:06:28;;;;;;;17.93;7.83;;;;;;;;;;5053742;28;20446;-68
2023/02/15 03:08:58;;;;;;;13.87;6.40;;;;;;;;;;5052791;28;20483;-68
2023/02/15 03:11:25;;;;;;;16.27;7.70;;;;;;;;;;5053796;28;20490;-68
2023/02/15 03:13:53;;;;;;;10.07;6.83;;;;;;;;;;5052995;28;20961;-68
2023/02/15 03:16:27;;;;;;;10.13;5.70;;;;;;;;;;5053129;28;20944;-68
2023/02/15 03:18:57;;;;;;;8.60;5.10;;;;;;;;;;5052730;28;20449;-68
2023/02/15 03:21:29;;;;;;;12.17;5.63;;;;;;;;;;5053473;28;20461;-69
2023/02/15 03:24:00;;;;;;;14.73;7.70;;;;;;;;;;5053034;28;20456;-68
2023/02/15 03:26:28;;;;;;;5.63;5.13;;;;;;;;;;5053353;28;20446;-68
2023/02/15 03:28:57;;;;;;;14.57;6.40;;;;;;;;;;5058412;28;20535;-68
2023/02/15 03:31:26;;;;;;;5.50;3.53;;;;;;;;;;5053128;28;20512;-68
2023/02/15 03:33:55;;;;;;;9.60;4.07;;;;;;;;;;5052704;28;20457;-68
2023/02/15 03:36:24;;;;;;;6.90;5.70;;;;;;;;;;5053226;28;20449;-68
2023/02/15 03:38:59;;;;;;;9.33;5.40;;;;;;;;;;5052368;28;20965;-68
2023/02/15 03:41:28;;;;;;;7.83;7.03;;;;;;;;;;5053285;28;20486;-68
2023/02/15 03:43:57;;;;;;;7.63;4.17;;;;;;;;;;5052235;28;20460;-68
2023/02/15 03:46:27;;;;;;;7.23;4.63;;;;;;;;;;5052947;28;20540;-68
2023/02/15 03:48:56;;;;;;;9.97;6.00;;;;;;;;;;5052194;28;20454;-68
2023/02/15 03:51:37;;;;;;;11.90;5.17;;;;;;;;;;5052826;28;20508;-68
2023/02/15 03:54:08;;;;;;;7.27;4.57;;;;;;;;;;5053104;28;20483;-68
2023/02/15 03:56:36;;;;;;;11.23;5.60;;;;;;;;;;5053070;28;20452;-68
2023/02/15 04:02:06;;;;;;;6.30;3.80;;;;;;;;;;4959461;28;20445;-68
2023/02/15 04:04:34;;;;;;;7.73;7.03;;;;;;;;;;5036074;28;20460;-68
2023/02/15 04:07:02;;;;;;;7.57;4.63;;;;;;;;;;5051178;28;20453;-68
2023/02/15 04:12:15;;;;;;;8.10;5.10;;;;;;;;;;5051654;28;20480;-68
2023/02/15 04:17:26;;;;;;;16.33;5.90;;;;;;;;;;5052229;28;20432;-69
2023/02/15 04:25:24;;;;;;;12.63;6.73;;;;;;;;;;5045474;28;20432;-68
2023/02/15 04:27:52;;;;;;;7.90;5.80;;;;;;;;;;5038987;28;20798;-68
2023/02/15 04:30:20;;;;;;;5.70;3.90;;;;;;;;;;5051534;28;20454;-68
2023/02/15 04:32:48;;;;;;;11.43;6.13;;;;;;;;;;5051417;28;20508;-68
2023/02/15 04:35:15;;;;;;;6.83;5.07;;;;;;;;;;5052015;28;20459;-68
2023/02/15 04:37:42;;;;;;;7.17;5.93;;;;;;;;;;5051106;28;20812;-67
2023/02/15 04:40:11;;;;;;;9.77;6.20;;;;;;;;;;5051285;28;20444;-67
2023/02/15 04:42:40;;;;;;;5.90;5.40;;;;;;;;;;5052169;28;20558;-67
2023/02/15 04:45:07;;;;;;;6.20;4.73;;;;;;;;;;5050497;28;20454;-67
2023/02/15 04:47:34;;;;;;;10.97;5.80;;;;;;;;;;5052027;28;20444;-69
2023/02/15 04:50:02;;;;;;;6.57;4.50;;;;;;;;;;5050472;28;20456;-69
2023/02/15 04:52:29;;;;;;;6.17;4.03;;;;;;;;;;5051654;28;20492;-68
2023/02/15 04:54:56;;;;;;;10.97;6.03;;;;;;;;;;5050736;28;20447;-67
2023/02/15 04:57:23;;;;;;;9.53;5.67;;;;;;;;;;5051773;28;20447;-67
2023/02/15 04:59:51;;;;;;;9.53;6.13;;;;;;;;;;5050356;28;20454;-67
2023/02/15 05:02:18;;;;;;;11.20;6.97;;;;;;;;;;5051144;28;20454;-70
2023/02/15 05:04:46;;;;;;;8.23;6.30;;;;;;;;;;5050855;28;20451;-70
2023/02/15 05:07:14;;;;;;;8.00;6.70;;;;;;;;;;5050979;28;20447;-83
2023/02/15 05:09:41;;;;;;;9.80;4.50;;;;;;;;;;5048446;28;20474;-70
2023/02/15 05:12:08;;;;;;;5.43;4.57;;;;;;;;;;5051321;28;20486;-71
2023/02/15 05:14:35;;;;;;;7.50;4.50;;;;;;;;;;5050604;28;20441;-67
2023/02/15 05:17:05;;;;;;;5.70;4.57;;;;;;;;;;5050399;28;20950;-67
2023/02/15 05:19:32;;;;;;;13.90;5.53;;;;;;;;;;5050569;28;20467;-68
2023/02/15 05:22:00;;;;;;;13.40;6.50;;;;;;;;;;5050795;28;20932;-72
2023/02/15 05:29:57;;;;;;;9.87;4.17;;;;;;;;;;5047520;28;20440;-71
2023/02/15 05:32:25;;;;;;;11.63;5.00;;;;;;;;;;5050828;28;20494;-71
2023/02/15 05:34:53;;;;;;;10.93;8.00;;;;;;;;;;5050777;28;20455;-72
2023/02/15 05:37:20;;;;;;;10.60;6.17;;;;;;;;;;5050619;28;20471;-71
2023/02/15 05:39:47;;;;;;;10.30;6.80;;;;;;;;;;5049959;28;20456;-71
2023/02/15 05:42:14;;;;;;;10.83;5.70;;;;;;;;;;5050674;28;20453;-71
2023/02/15 05:44:41;;;;;;;20.80;9.40;;;;;;;;;;5050630;28;20455;-71
2023/02/15 05:47:08;;;;;;;6.60;4.80;;;;;;;;;;5051023;28;20456;-72
2023/02/15 05:49:36;;;;;;;9.03;6.07;;;;;;;;;;5050501;28;20899;-71
2023/02/15 05:52:04;;;;;;;8.40;4.63;;;;;;;;;;5050245;28;20485;-71
2023/02/15 05:54:31;;;;;;;10.93;5.40;;;;;;;;;;5050698;28;20448;-71
2023/02/15 05:56:58;;;;;;;15.30;6.80;;;;;;;;;;5050410;28;20456;-71
2023/02/15 05:59:25;;;;;;;8.83;5.73;;;;;;;;;;5050487;28;20456;-71
2023/02/15 06:01:52;;;;;;;5.40;4.90;;;;;;;;;;5049859;28;20457;-71
2023/02/15 06:04:20;;;;;;;17.73;6.20;;;;;;;;;;5050745;28;20460;-71
2023/02/15 06:06:48;;;;;;;10.53;6.10;;;;;;;;;;5050206;28;20445;-71
2023/02/15 06:09:18;;;;;;;9.90;6.13;;;;;;;;;;5050329;28;20479;-70
2023/02/15 06:11:45;;;;;;;13.57;6.17;;;;;;;;;;5050109;28;20456;-71
2023/02/15 06:14:12;;;;;;;10.30;6.80;;;;;;;;;;5050757;28;20815;-71
2023/02/15 06:16:39;;;;;;;7.53;4.90;;;;;;;;;;5050473;28;20452;-67
2023/02/15 06:19:06;;;;;;;7.27;4.23;;;;;;;;;;5050952;28;20478;-71
2023/02/15 06:21:33;;;;;;;8.13;6.83;;;;;;;;;;5050727;28;20453;-71
2023/02/15 06:24:02;;;;;;;14.73;6.60;;;;;;;;;;5049958;28;20458;-71
2023/02/15 06:26:29;;;;;;;10.80;7.30;;;;;;;;;;5050636;28;20454;-71
2023/02/15 06:28:56;;;;;;;10.83;5.70;;;;;;;;;;5049570;28;20878;-72
2023/02/15 06:31:23;;;;;;;16.00;6.23;;;;;;;;;;5050490;28;20455;-71
2023/02/15 06:33:50;;;;;;;6.97;5.50;;;;;;;;;;5050403;28;20488;-72
2023/02/15 06:36:17;;;;;;;7.50;6.60;;;;;;;;;;5054404;28;20452;-71
2023/02/15 06:38:44;;;;;;;10.23;5.33;;;;;;;;;;5053348;28;20464;-72
2023/02/15 06:41:13;;;;;;;8.90;6.83;;;;;;;;;;5054145;28;20944;-71
2023/02/15 06:43:40;;;;;;;8.57;5.10;;;;;;;;;;5053319;28;20455;-69
2023/02/15 06:46:07;;;;;;;7.00;6.40;;;;;;;;;;5053928;28;20928;-72
2023/02/15 06:48:34;;;;;;;8.57;5.97;;;;;;;;;;5053978;28;20792;-70
2023/02/15 06:51:01;;;;;;;12.67;6.90;;;;;;;;;;5053547;28;20454;-72
2023/02/15 06:53:28;;;;;;;10.07;7.27;;;;;;;;;;5053561;28;20506;-72
2023/02/15 06:56:02;;;;;;;11.23;7.30;;;;;;;;;;5053407;28;20458;-72
2023/02/15 06:58:30;;;;;;;8.80;7.90;;;;;;;;;;5053992;28;20626;-72
2023/02/15 07:00:58;;;;;;;8.80;5.57;;;;;;;;;;5052947;28;20476;-72
2023/02/15 07:03:25;;;;;;;6.57;5.30;;;;;;;;;;5053476;28;20460;-72
2023/02/15 07:05:55;;;;;;;7.87;5.57;;;;;;;;;;5052982;28;20449;-72
2023/02/15 07:08:22;;;;;;;11.03;5.40;;;;;;;;;;5040738;28;20476;-71
2023/02/15 07:10:50;;;;;;;9.50;6.60;;;;;;;;;;5052416;28;20449;-72
2023/02/15 07:13:16;;;;;;;10.00;7.10;;;;;;;;;;5053679;28;20488;-71
2023/02/15 07:15:44;;;;;;;9.90;6.23;;;;;;;;;;5052921;28;20449;-72
2023/02/15 07:18:12;;;;;;;6.90;5.53;;;;;;;;;;5053682;28;20474;-71
2023/02/15 07:20:41;;;;;;;9.20;6.10;;;;;;;;;;5052991;28;20456;-72
2023/02/15 07:23:08;;;;;;;11.73;8.03;;;;;;;;;;5053720;28;20465;-72
2023/02/15 07:25:36;;;;;;;12.63;7.70;;;;;;;;;;5053515;28;20452;-72
2023/02/15 07:28:04;;;;;;;11.70;7.10;;;;;;;;;;5052657;28;20958;-71
2023/02/15 07:30:32;;;;;;;12.40;8.97;;;;;;;;;;5052901;28;20465;-72
2023/02/15 07:35:58;;;;;;;7.43;5.20;;;;;;;;;;4991062;28;20933;-71
2023/02/15 07:38:25;;;;;;;12.50;7.43;;;;;;;;;;5038510;28;20542;-71
2023/02/15 07:40:53;;;;;;;8.53;5.90;;;;;;;;;;5052299;28;20445;-73
2023/02/15 07:43:20;;;;;;;7.23;5.67;;;;;;;;;;5053144;28;20450;-72
2023/02/15 07:45:47;;;;;;;15.30;7.23;;;;;;;;;;5051311;28;20468;-71
2023/02/15 07:48:15;;;;;;;12.20;6.97;;;;;;;;;;5052970;28;20445;-72
2023/02/15 07:50:42;;;;;;;17.27;6.83;;;;;;;;;;5052254;28;20453;-71
2023/02/15 07:53:10;;;;;;;7.50;6.03;;;;;;;;;;5052967;28;20492;-70
2023/02/15 07:55:37;;;;;;;11.60;8.47;;;;;;;;;;5053076;28;20450;-72
2023/02/15 07:58:04;;;;;;;13.87;7.23;;;;;;;;;;5052250;28;20461;-72
2023/02/15 08:00:55;;;;;;;12.00;7.07;;;;;;;;;;5052079;28;20923;-72
2023/02/15 08:03:19;;;;;;;9.50;7.13;;;;;;;;;;5052327;28;20442;-72
2023/02/15 08:05:46;;;;;;;10.57;5.37;;;;;;;;;;5052129;28;20460;-71
2023/02/15 08:08:29;;;;;;;11.03;6.20;;;;;;;;;;5051861;28;20915;-72
2023/02/15 08:13:53;;;;;;;7.17;6.47;;;;;;;;;;5051985;28;20602;-72
2023/02/15 08:16:20;;;;;;;13.90;6.83;;;;;;;;;;5052089;28;20442;-72
2023/02/15 08:18:48;;;;;;;11.13;7.10;;;;;;;;;;5051295;28;20460;-71
2023/02/15 08:21:17;;;;;;;15.67;7.80;;;;;;;;;;5052378;28;20533;-71
2023/02/15 08:23:44;;;;;;;13.57;8.70;;;;;;;;;;5051980;28;20469;-72
2023/02/15 08:26:11;;;;;;;9.37;7.50;;;;;;;;;;5052374;28;20455;-72
2023/02/15 08:28:38;;;;;;;8.67;6.60;;;;;;;;;;5052013;28;20449;-72
2023/02/15 08:31:06;;;;;;;11.10;8.90;;;;;;;;;;5051915;28;20454;-71
2023/02/15 08:33:33;;;;;;;12.00;6.10;;;;;;;;;;5051935;28;21002;-72
2023/02/15 08:36:05;;;;;;;15.60;6.30;;;;;;;;;;5051620;28;20461;-72
2023/02/15 08:38:32;;;;;;;9.50;6.40;;;;;;;;;;5051872;28;20458;-72
2023/02/15 08:40:59;;;;;;;13.23;8.00;;;;;;;;;;5051571;28;20647;-72
2023/02/15 08:43:26;;;;;;;10.63;6.23;;;;;;;;;;5051631;28;20453;-72
2023/02/15 08:45:54;;;;;;;11.47;6.33;;;;;;;;;;5051171;28;20514;-72
2023/02/15 08:48:21;;;;;;;14.33;6.67;;;;;;;;;;5051844;28;20454;-71
2023/02/15 08:50:48;;;;;;;11.03;8.40;;;;;;;;;;5051549;28;20447;-71
2023/02/15 08:53:20;;;;;;;12.70;7.67;;;;;;;;;;5051476;28;20482;-70
2023/02/15 08:55:47;;;;;;;14.30;8.13;;;;;;;;;;5051493;28;20438;-71
2023/02/15 08:58:14;;;;;;;9.00;5.87;;;;;;;;;;5051207;28;20949;-71
2023/02/15 09:00:41;;;;;;;12.63;6.93;;;;;;;;;;5050803;28;20556;-71
2023/02/15 09:03:08;;;;;;;14.50;8.63;;;;;;;;;;5051595;28;20462;-71
2023/02/15 09:05:35;;;;;;;13.37;7.83;;;;;;;;;;5051805;28;20465;-72
2023/02/15 09:08:02;;;;;;;18.47;8.80;;;;;;;;;;5050344;28;20455;-73
2023/02/15 09:10:31;;;;;;;15.03;8.47;;;;;;;;;;5051280;28;20450;-72
2023/02/15 09:12:58;;;;;;;10.40;7.37;;;;;;;;;;5050573;28;20446;-73
2023/02/15 09:15:25;;;;;;;14.70;9.10;;;;;;;;;;5051546;28;20769;-72
2023/02/15 09:17:52;;;;;;;9.90;7.77;;;;;;;;;;5050374;28;20525;-71
2023/02/15 09:20:19;;;;;;;12.17;8.33;;;;;;;;;;5051048;28;20455;-72
2023/02/15 09:22:46;;;;;;;7.77;6.93;;;;;;;;;;5050560;28;20468;-71
2023/02/15 09:25:13;;;;;;;15.37;8.57;;;;;;;;;;5051482;28;20458;-71
2023/02/15 09:27:43;;;;;;;15.73;9.63;;;;;;;;;;5050317;28;20504;-71
2023/02/15 09:30:10;;;;;;;9.57;7.20;;;;;;;;;;5050631;28;20455;-70
2023/02/15 09:32:37;;;;;;;19.37;9.80;;;;;;;;;;5051244;28;20450;-72
2023/02/15 09:35:05;;;;;;;13.03;8.20;;;;;;;;;;5050956;28;20524;-71
2023/02/15 09:37:32;;;;;;;12.60;8.33;;;;;;;;;;5051149;28;20462;-71
2023/02/15 09:40:00;;;;;;;15.90;8.00;;;;;;;;;;5050280;28;20830;-72
2023/02/15 09:42:41;;;;;;;15.70;9.63;;;;;;;;;;5051169;28;20481;-72
2023/02/15 09:45:15;;;;;;;16.00;8.97;;;;;;;;;;5051032;28;20449;-72
2023/02/15 09:47:55;;;;;;;14.93;10.23;;;;;;;;;;5050608;28;20453;-72
2023/02/15 09:50:24;;;;;;;13.00;8.53;;;;;;;;;;5050808;28;20450;-72
2023/02/15 09:52:59;;;;;;;9.87;8.23;;;;;;;;;;5050766;28;20825;-72
2023/02/15 09:55:40;;;;;;;15.20;10.17;;;;;;;;;;5051013;28;20450;-72
2023/02/15 09:58:12;;;;;;;15.17;8.30;;;;;;;;;;5048976;28;20458;-72
2023/02/15 10:00:47;;;;;;;15.50;9.33;;;;;;;;;;5050521;28;20936;-68
2023/02/15 10:03:31;;;;;;;12.30;8.47;;;;;;;;;;5050889;28;20446;-72
2023/02/15 10:06:09;;;;;;;15.17;9.67;;;;;;;;;;5050421;28;20444;-71
2023/02/15 10:08:50;;;;;;;17.20;8.73;;;;;;;;;;5050637;28;20473;-72
2023/02/15 10:14:12;;;;;;;14.10;7.50;;;;;;;;;;5053608;28;20478;-72
2023/02/15 10:16:44;;;;;;;17.67;6.80;;;;;;;;;;5054921;28;20452;-72
2023/02/15 10:19:15;;;;;;;17.50;7.97;;;;;;;;;;5054364;28;20440;-72
2023/02/15 10:21:48;;;;;;;14.87;9.77;;;;;;;;;;5054012;28;20443;-72
2023/02/15 10:24:30;;;;;;;21.23;10.50;;;;;;;;;;5054898;28;20800;-72
2023/02/15 10:27:00;;;;;;;18.80;10.40;;;;;;;;;;5054127;28;20792;-72
2023/02/15 10:29:31;;;;;;;11.77;8.57;;;;;;;;;;5054150;28;20452;-73
2023/02/15 10:32:03;;;;;;;16.43;8.33;;;;;;;;;;5053823;28;20450;-72
2023/02/15 10:34:34;;;;;;;17.20;9.70;;;;;;;;;;5054547;28;20484;-73
2023/02/15 10:37:15;;;;;;;17.93;8.47;;;;;;;;;;5053480;28;20511;-72
2023/02/15 10:39:49;;;;;;;15.73;10.27;;;;;;;;;;5053674;28;20453;-72
2023/02/15 10:42:19;;;;;;;17.93;8.70;;;;;;;;;;5054291;28;20806;-72
2023/02/15 10:44:56;;;;;;;16.40;9.27;;;;;;;;;;5053791;28;20807;-72
2023/02/15 10:47:40;;;;;;;23.83;10.40;;;;;;;;;;5053907;28;20444;-73
2023/02/15 10:50:28;;;;;;;13.60;7.83;;;;;;;;;;5053570;28;20446;-73
2023/02/15 10:53:01;;;;;;;17.87;10.00;;;;;;;;;;5048977;28;20467;-72
2023/02/15 10:55:36;;;;;;;19.37;9.90;;;;;;;;;;5054226;28;20477;-73
2023/02/15 10:58:08;;;;;;;13.00;8.67;;;;;;;;;;5053623;28;20521;-73
2023/02/15 11:00:39;;;;;;;16.60;10.60;;;;;;;;;;5053810;28;20885;-73
2023/02/15 11:03:17;;;;;;;13.20;9.40;;;;;;;;;;5054035;28;20442;-72
2023/02/15 11:05:50;;;;;;;16.00;8.57;;;;;;;;;;5053559;28;20456;-73
2023/02/15 11:08:17;;;;;;;14.67;8.33;;;;;;;;;;5053367;28;20454;-72
2023/02/15 11:10:46;;;;;;;12.37;7.97;;;;;;;;;;5053414;28;20443;-73
2023/02/15 11:13:15;;;;;;;10.37;8.53;;;;;;;;;;5053831;28;20451;-73
2023/02/15 11:15:45;;;;;;;15.60;9.27;;;;;;;;;;5052884;28;20927;-72
2023/02/15 11:18:16;;;;;;;14.03;9.10;;;;;;;;;;5053097;28;20446;-72
2023/02/15 11:20:46;;;;;;;17.80;10.33;;;;;;;;;;5052882;28;20438;-72
2023/02/15 11:23:15;;;;;;;15.97;9.90;;;;;;;;;;5053442;28;20920;-72
2023/02/15 11:25:44;;;;;;;11.90;9.37;;;;;;;;;;5053065;28;20883;-72
2023/02/15 11:28:18;;;;;;;18.40;12.20;;;;;;;;;;5052830;28;20454;-72
2023/02/15 11:30:47;;;;;;;20.00;10.23;;;;;;;;;;5052933;28;20455;-72
2023/02/15 11:33:19;;;;;;;16.20;11.17;;;;;;;;;;5053532;28;20477;-72
2023/02/15 11:35:50;;;;;;;16.97;9.60;;;;;;;;;;5052751;28;20481;-72
2023/02/15 11:38:19;;;;;;;16.60;10.43;;;;;;;;;;5052697;28;20470;-72
2023/02/15 11:40:48;;;;;;;14.17;9.70;;;;;;;;;;5052966;28;20458;-72
2023/02/15 11:43:18;;;;;;;20.30;10.67;;;;;;;;;;5053245;28;20442;-72
2023/02/15 11:45:46;;;;;;;12.00;8.97;;;;;;;;;;5052268;28;20456;-72
2023/02/15 11:48:15;;;;;;;20.10;11.30;;;;;;;;;;5052617;28;20450;-73
2023/02/15 11:50:44;;;;;;;17.50;9.27;;;;;;;;;;5052554;28;20469;-73
2023/02/15 11:53:13;;;;;;;16.03;9.90;;;;;;;;;;5053110;28;20450;-73
2023/02/15 11:55:40;;;;;;;12.57;8.93;;;;;;;;;;5052454;28;20883;-71
2023/02/15 11:58:13;;;;;;;14.80;10.43;;;;;;;;;;5052643;28;20453;-73
2023/02/15 12:00:42;;;;;;;15.87;10.20;;;;;;;;;;5052141;28;20442;-71
2023/02/15 12:03:14;;;;;;;14.97;9.20;;;;;;;;;;5052726;28;20446;-71
2023/02/15 12:05:43;;;;;;;19.70;10.37;;;;;;;;;;5052147;28;20450;-71
2023/02/15 12:08:15;;;;;;;20.60;10.20;;;;;;;;;;5051968;28;20464;-72
2023/02/15 12:10:47;;;;;;;21.10;8.80;;;;;;;;;;5052355;28;20461;-72
2023/02/15 12:13:16;;;;;;;13.13;9.50;;;;;;;;;;5039275;28;20461;-73
2023/02/15 12:15:44;;;;;;;15.40;10.37;;;;;;;;;;5051700;28;21014;-73
2023/02/15 12:18:18;;;;;;;11.87;8.80;;;;;;;;;;5052176;28;20535;-72
2023/02/15 12:20:46;;;;;;;15.13;10.90;;;;;;;;;;5051690;28;20434;-72
2023/02/15 12:23:15;;;;;;;15.03;9.70;;;;;;;;;;5052577;28;20450;-73
2023/02/15 12:25:44;;;;;;;17.40;9.67;;;;;;;;;;5051491;28;20451;-73
2023/02/15 12:28:21;;;;;;;22.07;12.60;;;;;;;;;;5051994;28;20447;-73
2023/02/15 12:30:48;;;;;;;15.00;9.67;;;;;;;;;;5051836;28;20438;-73
2023/02/15 12:33:17;;;;;;;18.53;9.10;;;;;;;;;;5051603;28;20449;-72
2023/02/15 12:35:49;;;;;;;16.70;9.63;;;;;;;;;;5051410;28;20483;-73
2023/02/15 12:38:23;;;;;;;18.27;10.97;;;;;;;;;;5051735;28;20458;-72
2023/02/15 12:40:58;;;;;;;16.87;9.57;;;;;;;;;;5051599;28;20437;-73
2023/02/15 12:43:26;;;;;;;17.10;12.27;;;;;;;;;;5051860;28;20946;-73
2023/02/15 12:45:53;;;;;;;15.53;10.80;;;;;;;;;;5051294;28;20965;-74
2023/02/15 12:48:21;;;;;;;15.40;10.97;;;;;;;;;;5051392;28;20446;-73
2023/02/15 12:50:49;;;;;;;20.40;11.63;;;;;;;;;;5051409;28;20450;-73
2023/02/15 12:53:18;;;;;;;13.83;10.23;;;;;;;;;;5051619;28;20454;-73
2023/02/15 12:55:54;;;;;;;24.33;11.90;;;;;;;;;;5050936;28;20585;-73
2023/02/15 12:58:24;;;;;;;14.30;10.53;;;;;;;;;;5051182;28;20529;-73
2023/02/15 13:01:02;;;;;;;16.47;10.40;;;;;;;;;;5051263;28;20442;-74
2023/02/15 13:03:30;;;;;;;14.63;9.93;;;;;;;;;;5038704;28;20868;-73
2023/02/15 13:05:57;;;;;;;13.70;9.87;;;;;;;;;;5050689;28;20472;-73
2023/02/15 13:08:29;;;;;;;16.70;12.17;;;;;;;;;;5050837;28;20485;-73
2023/02/15 13:10:58;;;;;;;17.10;10.83;;;;;;;;;;5050712;28;20442;-74
2023/02/15 13:13:27;;;;;;;17.00;11.10;;;;;;;;;;5051601;28;20458;-74
2023/02/15 13:15:56;;;;;;;18.07;10.90;;;;;;;;;;5050384;28;20485;-73
2023/02/15 13:18:30;;;;;;;15.67;10.90;;;;;;;;;;5050914;28;20434;-73
2023/02/15 13:20:57;;;;;;;15.30;11.67;;;;;;;;;;5050623;28;20926;-73
2023/02/15 13:23:28;;;;;;;13.10;11.60;;;;;;;;;;5051056;28;20450;-73
2023/02/15 13:25:56;;;;;;;21.10;11.90;;;;;;;;;;5050628;28;20783;-73
2023/02/15 13:28:27;;;;;;;16.03;10.80;;;;;;;;;;5050548;28;20454;-74
2023/02/15 13:30:54;;;;;;;14.23;11.03;;;;;;;;;;5050680;28;20446;-73
2023/02/15 13:33:26;;;;;;;14.40;10.07;;;;;;;;;;5050817;28;20446;-74
2023/02/15 13:35:57;;;;;;;19.13;11.43;;;;;;;;;;5050188;28;20593;-73
2023/02/15 13:38:32;;;;;;;14.60;9.63;;;;;;;;;;5050940;28;20836;-74
2023/02/15 13:41:02;;;;;;;16.60;11.10;;;;;;;;;;5050533;28;20931;-74
2023/02/15 13:43:42;;;;;;;16.80;10.80;;;;;;;;;;5050038;28;20766;-74
2023/02/15 13:46:19;;;;;;;16.60;10.37;;;;;;;;;;5051157;28;20801;-73
2023/02/15 13:48:50;;;;;;;17.13;10.60;;;;;;;;;;5049979;28;20442;-72
2023/02/15 13:51:21;;;;;;;17.30;12.67;;;;;;;;;;5051271;28;20445;-73
2023/02/15 13:53:57;;;;;;;20.63;10.77;;;;;;;;;;5050531;28;20469;-73
2023/02/15 13:56:31;;;;;;;14.97;12.63;;;;;;;;;;5050830;28;20478;-73
2023/02/15 13:59:07;;;;;;;18.53;11.17;;;;;;;;;;5049820;28;20504;-73
2023/02/15 14:01:38;;;;;;;18.43;10.77;;;;;;;;;;5050608;28;20945;-73
2023/02/15 14:04:18;;;;;;;18.20;11.53;;;;;;;;;;5051130;28;20435;-72
2023/02/15 14:07:03;;;;;;;14.33;11.03;;;;;;;;;;5050130;28;20449;-71
2023/02/15 14:09:35;;;;;;;22.60;11.00;;;;;;;;;;5040251;28;21236;-73
2023/02/15 14:12:18;;;;;;;18.77;12.13;;;;;;;;;;5050467;28;20787;-74
2023/02/15 14:14:57;;;;;;;13.63;9.70;;;;;;;;;;5049824;28;20477;-73
2023/02/15 14:17:30;;;;;;;13.93;9.70;;;;;;;;;;5050332;28;21018;-73
2023/02/15 14:20:00;;;;;;;12.80;9.73;;;;;;;;;;5049666;28;20445;-73
2023/02/15 14:22:31;;;;;;;12.53;10.43;;;;;;;;;;5050780;28;20495;-73
2023/02/15 14:25:04;;;;;;;15.97;9.90;;;;;;;;;;5049874;28;20450;-73
2023/02/15 14:27:41;;;;;;;10.73;8.57;;;;;;;;;;5050445;28;20447;-73
2023/02/15 14:30:16;;;;;;;16.60;8.83;;;;;;;;;;5050493;28;20486;-73
2023/02/15 14:32:46;;;;;;;10.97;9.13;;;;;;;;;;5050044;28;20449;-73
2023/02/15 14:35:15;;;;;;;15.07;9.47;;;;;;;;;;5050624;28;20474;-73
2023/02/15 14:37:45;;;;;;;14.90;10.30;;;;;;;;;;5050300;28;20464;-73
2023/02/15 14:43:06;;;;;;;15.70;9.37;;;;;;;;;;5049879;28;20426;-74
2023/02/15 14:45:42;;;;;;;15.10;9.00;;;;;;;;;;5050526;28;20457;-74
2023/02/15 14:48:13;;;;;;;14.87;9.20;;;;;;;;;;5050090;28;20434;-73
2023/02/15 14:50:42;;;;;;;13.97;8.60;;;;;;;;;;5049989;28;20449;-73
2023/02/15 14:53:33;;;;;;;14.83;9.00;;;;;;;;;;5050538;28;20453;-74
2023/02/15 14:56:17;;;;;;;13.17;9.40;;;;;;;;;;5037177;28;20767;-73
2023/02/15 14:58:56;;;;;;;16.10;9.93;;;;;;;;;;5041602;28;20486;-73
2023/02/15 15:01:28;;;;;;;14.67;9.90;;;;;;;;;;5053893;28;20446;-75
2023/02/15 15:03:57;;;;;;;13.10;9.93;;;;;;;;;;5053298;28;20529;-75
2023/02/15 15:06:27;;;;;;;13.97;10.67;;;;;;;;;;5053896;28;20520;-73
2023/02/15 15:08:59;;;;;;;13.20;10.97;;;;;;;;;;5052783;28;20482;-74
2023/02/15 15:11:40;;;;;;;13.03;9.13;;;;;;;;;;5053454;28;20489;-74
2023/02/15 15:14:07;;;;;;;13.67;8.53;;;;;;;;;;5053482;28;20454;-73
2023/02/15 15:16:52;;;;;;;14.47;8.23;;;;;;;;;;5053509;28;20478;-72
2023/02/15 15:19:38;;;;;;;11.17;8.07;;;;;;;;;;5052861;28;20461;-73